Time;durP1;ratioP1;P1;durP2;ratioP2;P2;SDS_P1;SDS_P2;PMS_P1;PMS_P2;Temp;Humidity;BMP_temperature;BMP_pressure;BME280_temperature;BME280_humidity;BME280_pressure;Samples;Min_cycle;Max_cycle;Signal;HPM_P1;HPM_P2
2023/05/11 00:01:06;;;;;;;11.23;4.72;;;;;;;;;;4949020;28;92875;-80
2023/05/11 00:03:33;;;;;;;12.10;5.22;;;;;;;;;;4949399;28;91803;-80
2023/05/11 00:06:00;;;;;;;10.15;4.50;;;;;;;;;;4949068;28;92920;-80
2023/05/11 00:08:27;;;;;;;13.57;5.80;;;;;;;;;;4947592;28;93173;-81
2023/05/11 00:10:53;;;;;;;12.57;5.10;;;;;;;;;;4947127;28;95372;-81
2023/05/11 00:13:20;;;;;;;11.63;5.43;;;;;;;;;;4948965;28;95994;-80
2023/05/11 00:15:46;;;;;;;11.82;5.32;;;;;;;;;;4950139;28;93232;-81
2023/05/11 00:18:13;;;;;;;11.32;4.68;;;;;;;;;;4949323;28;92957;-81
2023/05/11 00:20:39;;;;;;;13.10;5.60;;;;;;;;;;4948645;28;93590;-81
2023/05/11 00:23:05;;;;;;;10.70;4.78;;;;;;;;;;4948942;28;92436;-81
2023/05/11 00:25:32;;;;;;;10.43;4.85;;;;;;;;;;4949717;28;92888;-81
2023/05/11 00:27:58;;;;;;;10.98;5.30;;;;;;;;;;4950169;28;92400;-81
2023/05/11 00:30:25;;;;;;;11.40;5.45;;;;;;;;;;4947290;28;92567;-80
2023/05/11 00:32:51;;;;;;;10.38;4.80;;;;;;;;;;4949678;28;92931;-81
2023/05/11 00:35:18;;;;;;;10.77;5.03;;;;;;;;;;4949728;28;95709;-81
2023/05/11 00:37:44;;;;;;;11.80;5.30;;;;;;;;;;4961979;28;92498;-81
2023/05/11 00:40:11;;;;;;;10.85;5.15;;;;;;;;;;4953641;28;93341;-81
2023/05/11 00:42:37;;;;;;;11.52;5.47;;;;;;;;;;4960465;28;92431;-81
2023/05/11 00:45:04;;;;;;;11.15;5.55;;;;;;;;;;4965972;28;92500;-81
2023/05/11 00:47:31;;;;;;;11.65;5.10;;;;;;;;;;4962807;28;92689;-81
2023/05/11 00:49:58;;;;;;;10.65;4.90;;;;;;;;;;4965567;28;93237;-81
2023/05/11 00:52:24;;;;;;;13.95;5.80;;;;;;;;;;4971777;28;93755;-81
2023/05/11 00:54:51;;;;;;;11.65;5.22;;;;;;;;;;4956668;28;93002;-81
2023/05/11 00:57:18;;;;;;;11.32;4.90;;;;;;;;;;4970293;28;92525;-81
2023/05/11 00:59:45;;;;;;;12.85;5.63;;;;;;;;;;4950855;28;96905;-80
2023/05/11 01:02:12;;;;;;;11.02;5.47;;;;;;;;;;4952641;28;92431;-81
2023/05/11 01:04:39;;;;;;;10.77;5.45;;;;;;;;;;4953291;28;92528;-80
2023/05/11 01:07:14;;;;;;;12.43;6.07;;;;;;;;;;4956256;28;92468;-81
2023/05/11 01:09:56;;;;;;;13.05;5.90;;;;;;;;;;4950215;28;92970;-81
2023/05/11 01:12:29;;;;;;;12.57;5.30;;;;;;;;;;4949356;28;95623;-80
2023/05/11 01:15:02;;;;;;;13.20;5.68;;;;;;;;;;4938192;28;96207;-81
2023/05/11 01:17:55;;;;;;;13.80;6.60;;;;;;;;;;4935188;28;92650;-81
2023/05/11 01:20:28;;;;;;;14.77;6.63;;;;;;;;;;4959280;28;94181;-82
2023/05/11 01:23:01;;;;;;;12.60;5.47;;;;;;;;;;4951754;28;92564;-81
2023/05/11 01:25:28;;;;;;;13.13;6.72;;;;;;;;;;4968488;28;95301;-82
2023/05/11 01:27:56;;;;;;;;;;;;;;;;;;4970111;28;95125;-82
2023/05/11 01:30:35;;;;;;;12.57;5.20;;;;;;;;;;4971308;28;102572;-81
2023/05/11 01:33:05;;;;;;;12.68;5.28;;;;;;;;;;4960198;28;93898;-82
2023/05/11 01:35:34;;;;;;;11.32;4.82;;;;;;;;;;4956888;28;95916;-82
2023/05/11 01:38:03;;;;;;;12.27;5.57;;;;;;;;;;4968533;28;92534;-82
2023/05/11 01:40:31;;;;;;;12.23;5.20;;;;;;;;;;4979398;28;96150;-81
2023/05/11 01:43:00;;;;;;;10.98;5.07;;;;;;;;;;4967853;28;92143;-82
2023/05/11 01:45:28;;;;;;;12.43;5.35;;;;;;;;;;4953330;28;92531;-81
2023/05/11 01:47:54;;;;;;;12.60;5.72;;;;;;;;;;4951964;28;94777;-82
2023/05/11 01:50:23;;;;;;;13.27;6.07;;;;;;;;;;4959148;28;95101;-82
2023/05/11 01:52:50;;;;;;;13.48;5.55;;;;;;;;;;4962343;28;99811;-80
2023/05/11 01:55:19;;;;;;;16.83;6.18;;;;;;;;;;4960692;28;92782;-80
2023/05/11 01:57:47;;;;;;;12.85;5.78;;;;;;;;;;4970559;28;92909;-80
2023/05/11 02:00:15;;;;;;;16.05;7.40;;;;;;;;;;4973806;28;92930;-80
2023/05/11 02:02:46;;;;;;;13.60;6.10;;;;;;;;;;4973528;28;92390;-81
2023/05/11 02:05:21;;;;;;;13.85;6.32;;;;;;;;;;4977239;28;92312;-81
2023/05/11 02:07:51;;;;;;;12.05;5.65;;;;;;;;;;4955783;28;93909;-80
2023/05/11 02:10:18;;;;;;;10.90;5.00;;;;;;;;;;4968990;28;92548;-81
2023/05/11 02:12:45;;;;;;;;;;;;;;;;;;4969084;28;92899;-81
2023/05/11 02:15:13;;;;;;;13.55;6.25;;;;;;;;;;4960073;28;96564;-81
2023/05/11 02:17:40;;;;;;;15.70;7.45;;;;;;;;;;4959194;28;92620;-81
2023/05/11 02:20:07;;;;;;;15.68;7.80;;;;;;;;;;4978972;28;92884;-82
2023/05/11 02:22:35;;;;;;;18.02;7.07;;;;;;;;;;4967656;28;95689;-82
2023/05/11 02:25:02;;;;;;;14.40;5.68;;;;;;;;;;4974915;28;92938;-81
2023/05/11 02:27:29;;;;;;;;;;;;;;;;;;4976006;28;92875;-81
2023/05/11 02:29:56;;;;;;;15.70;6.90;;;;;;;;;;4967295;28;92816;-81
2023/05/11 02:32:27;;;;;;;13.35;5.85;;;;;;;;;;4952113;28;94043;-81
2023/05/11 02:34:58;;;;;;;17.10;7.75;;;;;;;;;;4959617;28;93016;-81
2023/05/11 02:37:26;;;;;;;17.30;7.53;;;;;;;;;;4952648;28;93014;-81
2023/05/11 02:39:59;;;;;;;13.85;6.20;;;;;;;;;;4950150;28;95066;-82
2023/05/11 02:42:27;;;;;;;16.63;7.55;;;;;;;;;;4950234;28;95322;-81
2023/05/11 02:45:01;;;;;;;13.75;5.90;;;;;;;;;;4934059;28;92462;-81
2023/05/11 02:47:29;;;;;;;15.57;7.30;;;;;;;;;;4952980;28;95800;-81
2023/05/11 02:49:57;;;;;;;15.73;6.95;;;;;;;;;;4949097;28;92467;-81
2023/05/11 02:52:27;;;;;;;12.75;6.30;;;;;;;;;;4949063;28;93863;-82
2023/05/11 02:54:53;;;;;;;15.82;6.70;;;;;;;;;;4953406;28;95592;-81
2023/05/11 02:57:20;;;;;;;16.48;7.47;;;;;;;;;;4956172;28;92219;-81
2023/05/11 02:59:47;;;;;;;13.20;6.10;;;;;;;;;;4946949;28;92773;-81
2023/05/11 03:02:13;;;;;;;13.35;5.78;;;;;;;;;;4965953;28;93708;-82
2023/05/11 03:04:41;;;;;;;12.90;5.68;;;;;;;;;;4963289;28;96969;-81
2023/05/11 03:07:08;;;;;;;13.45;5.22;;;;;;;;;;4957451;28;95476;-81
2023/05/11 03:09:34;;;;;;;14.80;6.60;;;;;;;;;;4957280;28;95375;-81
2023/05/11 03:12:02;;;;;;;12.52;6.05;;;;;;;;;;4950413;28;92791;-81
2023/05/11 03:14:32;;;;;;;13.85;6.45;;;;;;;;;;4961097;28;95484;-81
2023/05/11 03:16:59;;;;;;;16.83;7.45;;;;;;;;;;4949501;28;92435;-81
2023/05/11 03:19:27;;;;;;;13.23;6.45;;;;;;;;;;4949408;28;95445;-81
2023/05/11 03:21:56;;;;;;;11.77;5.68;;;;;;;;;;4952273;28;94421;-81
2023/05/11 03:24:24;;;;;;;12.77;5.60;;;;;;;;;;4948215;28;92572;-80
2023/05/11 03:26:52;;;;;;;13.93;5.93;;;;;;;;;;4944547;28;93901;-81
2023/05/11 03:29:21;;;;;;;13.10;5.50;;;;;;;;;;4922449;28;98319;-82
2023/05/11 03:31:49;;;;;;;13.45;5.55;;;;;;;;;;4937806;28;93117;-81
2023/05/11 03:34:18;;;;;;;14.60;6.80;;;;;;;;;;4947976;28;95432;-82
2023/05/11 03:36:47;;;;;;;13.15;6.28;;;;;;;;;;4947843;28;92621;-81
2023/05/11 03:39:15;;;;;;;14.18;5.93;;;;;;;;;;4948085;28;95790;-82
2023/05/11 03:41:44;;;;;;;13.85;6.68;;;;;;;;;;4947890;28;95536;-81
2023/05/11 03:44:12;;;;;;;12.32;5.80;;;;;;;;;;4947974;28;92460;-82
2023/05/11 03:46:40;;;;;;;19.77;6.80;;;;;;;;;;4947764;28;95048;-79
2023/05/11 03:49:09;;;;;;;13.85;6.00;;;;;;;;;;4948160;28;95600;-79
2023/05/11 03:51:39;;;;;;;14.25;6.60;;;;;;;;;;4948110;28;92548;-80
2023/05/11 03:54:06;;;;;;;16.83;5.93;;;;;;;;;;4950547;28;95278;-80
2023/05/11 03:56:33;;;;;;;;;;;;;;;;;;4947920;28;94113;-80
2023/05/11 03:59:00;;;;;;;16.30;7.53;;;;;;;;;;4950119;28;113718;-80
2023/05/11 04:01:27;;;;;;;14.85;6.70;;;;;;;;;;4938835;28;93055;-80
2023/05/11 04:03:53;;;;;;;13.50;6.43;;;;;;;;;;4949329;28;92389;-80
2023/05/11 04:06:21;;;;;;;13.95;6.78;;;;;;;;;;4948015;28;94018;-81
2023/05/11 04:09:05;;;;;;;17.48;7.93;;;;;;;;;;4946212;28;97674;-79
2023/05/11 04:11:35;;;;;;;17.95;8.15;;;;;;;;;;4949419;28;91821;-79
2023/05/11 04:14:01;;;;;;;20.40;8.90;;;;;;;;;;4948783;28;93172;-79
2023/05/11 04:16:28;;;;;;;16.95;7.40;;;;;;;;;;4933959;28;94392;-79
2023/05/11 04:18:54;;;;;;;15.63;7.63;;;;;;;;;;4945803;28;95708;-80
2023/05/11 04:21:21;;;;;;;20.00;9.52;;;;;;;;;;4948504;28;92955;-80
2023/05/11 04:23:47;;;;;;;20.75;9.52;;;;;;;;;;4948739;28;92734;-80
2023/05/11 04:26:14;;;;;;;17.20;7.50;;;;;;;;;;4948691;28;92933;-81
2023/05/11 04:28:42;;;;;;;18.75;8.57;;;;;;;;;;4945607;28;95774;-81
2023/05/11 04:31:09;;;;;;;16.70;7.35;;;;;;;;;;4948500;28;92574;-80
2023/05/11 04:33:36;;;;;;;;;;;;;;;;;;4947516;28;94863;-80
2023/05/11 04:36:02;;;;;;;14.80;6.75;;;;;;;;;;4973286;28;93336;-81
2023/05/11 04:38:29;;;;;;;15.00;6.80;;;;;;;;;;4960149;28;92407;-81
2023/05/11 04:40:56;;;;;;;14.18;6.45;;;;;;;;;;4951334;28;95152;-81
2023/05/11 04:43:23;;;;;;;14.75;6.50;;;;;;;;;;4966741;28;95471;-81
2023/05/11 04:45:50;;;;;;;14.77;7.30;;;;;;;;;;4956384;28;96475;-81
2023/05/11 04:48:25;;;;;;;13.85;6.40;;;;;;;;;;4966379;28;95164;-81
2023/05/11 04:50:55;;;;;;;14.15;6.53;;;;;;;;;;4954051;28;92964;-82
2023/05/11 04:53:26;;;;;;;14.55;6.78;;;;;;;;;;4959028;28;94488;-82
2023/05/11 04:55:53;;;;;;;13.88;6.15;;;;;;;;;;4948809;28;94901;-82
2023/05/11 04:58:20;;;;;;;12.70;5.72;;;;;;;;;;4950690;28;92560;-82
2023/05/11 05:00:47;;;;;;;;;;;;;;;;;;4963458;28;99846;-83
2023/05/11 05:03:14;;;;;;;12.98;6.03;;;;;;;;;;4949846;28;92936;-82
2023/05/11 05:05:40;;;;;;;12.57;5.97;;;;;;;;;;4950003;28;94226;-82
2023/05/11 05:08:08;;;;;;;12.68;6.28;;;;;;;;;;4946121;28;98051;-82
2023/05/11 05:10:35;;;;;;;13.95;6.57;;;;;;;;;;4946962;28;92499;-80
2023/05/11 05:13:01;;;;;;;12.80;6.22;;;;;;;;;;4949575;28;92738;-81
2023/05/11 05:15:29;;;;;;;13.25;6.45;;;;;;;;;;4947773;28;95933;-82
2023/05/11 05:17:56;;;;;;;13.23;6.28;;;;;;;;;;4947096;28;92941;-82
2023/05/11 05:20:23;;;;;;;13.90;7.03;;;;;;;;;;4949941;28;95252;-81
2023/05/11 05:22:50;;;;;;;12.88;5.93;;;;;;;;;;4932634;28;92655;-82
2023/05/11 05:25:16;;;;;;;15.60;7.47;;;;;;;;;;4931693;28;92835;-81
2023/05/11 05:27:43;;;;;;;16.55;7.10;;;;;;;;;;4947035;28;95626;-80
2023/05/11 05:30:15;;;;;;;13.75;6.40;;;;;;;;;;4963392;28;92516;-81
2023/05/11 05:32:42;;;;;;;12.23;5.25;;;;;;;;;;4963506;28;95925;-80
2023/05/11 05:35:09;;;;;;;15.20;7.25;;;;;;;;;;4946830;28;94245;-83
2023/05/11 05:37:36;;;;;;;14.23;5.80;;;;;;;;;;4955341;28;92618;-82
2023/05/11 05:40:03;;;;;;;13.23;6.13;;;;;;;;;;4956975;28;93442;-81
2023/05/11 05:42:32;;;;;;;12.70;5.13;;;;;;;;;;4974380;28;99108;-83
2023/05/11 05:44:59;;;;;;;10.05;4.53;;;;;;;;;;4968410;28;95427;-84
2023/05/11 05:47:26;;;;;;;10.40;4.63;;;;;;;;;;4971132;28;95941;-81
2023/05/11 05:49:52;;;;;;;9.30;3.95;;;;;;;;;;4961120;28;93629;-82
2023/05/11 05:52:19;;;;;;;12.23;4.50;;;;;;;;;;4971549;28;94523;-81
2023/05/11 05:54:47;;;;;;;8.52;3.90;;;;;;;;;;4969637;28;94627;-83
2023/05/11 05:57:13;;;;;;;8.27;3.63;;;;;;;;;;4955314;28;95058;-83
2023/05/11 05:59:42;;;;;;;8.73;3.90;;;;;;;;;;4959464;28;97771;-83
2023/05/11 06:02:10;;;;;;;8.77;3.60;;;;;;;;;;4964858;28;95697;-83
2023/05/11 06:04:37;;;;;;;7.65;3.33;;;;;;;;;;4972499;28;92723;-83
2023/05/11 06:07:04;;;;;;;11.63;3.78;;;;;;;;;;4972525;28;93542;-83
2023/05/11 06:09:30;;;;;;;6.97;3.00;;;;;;;;;;4970799;28;92566;-83
2023/05/11 06:11:57;;;;;;;7.60;3.42;;;;;;;;;;4955827;28;94200;-82
2023/05/11 06:14:23;;;;;;;8.38;3.90;;;;;;;;;;4959500;28;94489;-82
2023/05/11 06:16:52;;;;;;;9.40;3.65;;;;;;;;;;4955693;28;93023;-81
2023/05/11 06:19:20;;;;;;;7.85;3.60;;;;;;;;;;4949606;28;93662;-82
2023/05/11 06:21:47;;;;;;;8.80;3.63;;;;;;;;;;4950635;28;98157;-82
2023/05/11 06:24:14;;;;;;;8.43;3.50;;;;;;;;;;4968974;28;93107;-82
2023/05/11 06:26:42;;;;;;;7.60;3.10;;;;;;;;;;4971528;28;96151;-81
2023/05/11 06:29:11;;;;;;;7.57;3.50;;;;;;;;;;4968173;28;92491;-81
2023/05/11 06:31:37;;;;;;;8.52;3.22;;;;;;;;;;4952301;28;95624;-81
2023/05/11 06:34:07;;;;;;;7.30;3.40;;;;;;;;;;4964028;28;95770;-81
2023/05/11 06:36:35;;;;;;;8.50;3.50;;;;;;;;;;4967855;28;92528;-83
2023/05/11 06:39:01;;;;;;;11.52;3.88;;;;;;;;;;4968835;28;95533;-82
2023/05/11 06:41:28;;;;;;;9.98;3.33;;;;;;;;;;4968336;28;95704;-84
2023/05/11 06:43:55;;;;;;;9.05;3.60;;;;;;;;;;4964084;28;92529;-81
2023/05/11 06:46:26;;;;;;;8.40;3.40;;;;;;;;;;4961615;28;95527;-80
2023/05/11 06:48:53;;;;;;;7.93;3.40;;;;;;;;;;4971181;28;95755;-81
2023/05/11 06:51:22;;;;;;;10.60;3.42;;;;;;;;;;4971547;28;92802;-84
2023/05/11 06:53:49;;;;;;;11.13;3.40;;;;;;;;;;4971900;28;93184;-85
2023/05/11 06:56:16;;;;;;;7.93;3.55;;;;;;;;;;4970787;28;93175;-85
2023/05/11 06:58:42;;;;;;;8.82;3.63;;;;;;;;;;4951376;28;93912;-86
2023/05/11 07:01:10;;;;;;;7.97;3.83;;;;;;;;;;4970213;28;93098;-84
2023/05/11 07:03:36;;;;;;;8.40;3.92;;;;;;;;;;4966973;28;91819;-83
2023/05/11 07:06:04;;;;;;;9.48;3.92;;;;;;;;;;4947283;28;92507;-84
2023/05/11 07:08:32;;;;;;;9.95;4.30;;;;;;;;;;4967406;28;93836;-83
2023/05/11 07:10:59;;;;;;;8.43;4.05;;;;;;;;;;4953217;28;94977;-84
2023/05/11 07:13:25;;;;;;;9.35;4.25;;;;;;;;;;4960918;28;93136;-83
2023/05/11 07:15:52;;;;;;;9.75;4.07;;;;;;;;;;4964088;28;92541;-84
2023/05/11 07:18:22;;;;;;;9.43;4.32;;;;;;;;;;4969840;28;93273;-86
2023/05/11 07:20:49;;;;;;;8.85;4.20;;;;;;;;;;4952613;28;97536;-84
2023/05/11 07:23:15;;;;;;;8.50;4.18;;;;;;;;;;4944266;28;92419;-84
2023/05/11 07:25:42;;;;;;;8.93;4.05;;;;;;;;;;4951145;28;92829;-84
2023/05/11 07:28:09;;;;;;;11.35;4.00;;;;;;;;;;4964338;28;93451;-87
2023/05/11 07:30:35;;;;;;;8.18;3.50;;;;;;;;;;4957093;28;92468;-84
2023/05/11 07:33:02;;;;;;;7.88;3.35;;;;;;;;;;4950475;28;93768;-85
2023/05/11 07:35:30;;;;;;;7.95;3.63;;;;;;;;;;4951685;28;95352;-87
2023/05/11 07:37:56;;;;;;;7.35;3.17;;;;;;;;;;4950162;28;95234;-86
2023/05/11 07:40:23;;;;;;;7.28;3.30;;;;;;;;;;4949209;28;93124;-84
2023/05/11 07:42:50;;;;;;;13.40;3.80;;;;;;;;;;4949712;28;92613;-87
2023/05/11 07:45:17;;;;;;;7.25;3.03;;;;;;;;;;4949918;28;92804;-88
2023/05/11 07:47:43;;;;;;;8.40;2.97;;;;;;;;;;4950730;28;93006;-87
2023/05/11 07:50:11;;;;;;;9.90;3.38;;;;;;;;;;4949249;28;92553;-86
2023/05/11 07:52:38;;;;;;;6.70;2.75;;;;;;;;;;4954103;28;92919;-88
2023/05/11 07:55:05;;;;;;;8.77;3.90;;;;;;;;;;4943814;28;92936;-85
2023/05/11 07:57:31;;;;;;;8.13;3.38;;;;;;;;;;4952308;28;93379;-85
2023/05/11 07:59:58;;;;;;;9.80;4.40;;;;;;;;;;4962482;28;95739;-86
2023/05/11 08:02:24;;;;;;;8.50;3.35;;;;;;;;;;4946930;28;92987;-84
2023/05/11 08:04:51;;;;;;;7.65;3.38;;;;;;;;;;4961655;28;95928;-84
2023/05/11 08:07:18;;;;;;;7.22;2.90;;;;;;;;;;4966872;28;93371;-84
2023/05/11 08:09:44;;;;;;;10.20;3.50;;;;;;;;;;4950439;28;92538;-84
2023/05/11 08:12:11;;;;;;;10.27;3.70;;;;;;;;;;4953661;28;92534;-84
2023/05/11 08:14:37;;;;;;;7.45;2.70;;;;;;;;;;4952882;28;98406;-84
2023/05/11 08:17:05;;;;;;;10.05;4.97;;;;;;;;;;4965743;28;92701;-84
2023/05/11 08:19:31;;;;;;;10.40;4.93;;;;;;;;;;4963725;28;92939;-83
2023/05/11 08:21:59;;;;;;;9.00;4.40;;;;;;;;;;4927336;28;92524;-84
2023/05/11 08:24:26;;;;;;;7.90;3.90;;;;;;;;;;4940580;28;94914;-84
2023/05/11 08:26:52;;;;;;;7.13;3.38;;;;;;;;;;4948948;28;92753;-84
2023/05/11 08:29:19;;;;;;;9.10;4.00;;;;;;;;;;4946354;28;92528;-85
2023/05/11 08:31:46;;;;;;;7.28;3.22;;;;;;;;;;4954412;28;92928;-84
2023/05/11 08:34:12;;;;;;;8.50;3.38;;;;;;;;;;4948320;28;93844;-84
2023/05/11 08:36:45;;;;;;;8.10;3.30;;;;;;;;;;4951046;28;92482;-83
2023/05/11 08:39:12;;;;;;;7.00;3.38;;;;;;;;;;4947013;28;95799;-84
2023/05/11 08:41:38;;;;;;;10.00;5.50;;;;;;;;;;4950486;28;92175;-87
2023/05/11 08:44:06;;;;;;;11.43;5.50;;;;;;;;;;4949876;28;92843;-84
2023/05/11 08:46:34;;;;;;;11.27;6.03;;;;;;;;;;4948648;28;93030;-84
2023/05/11 08:49:01;;;;;;;10.45;5.65;;;;;;;;;;4948365;28;94954;-84
2023/05/11 08:51:27;;;;;;;12.77;6.65;;;;;;;;;;4943263;28;95241;-84
2023/05/11 08:53:56;;;;;;;12.27;7.07;;;;;;;;;;4955108;28;93328;-84
2023/05/11 08:56:24;;;;;;;10.75;6.47;;;;;;;;;;4953605;28;92829;-83
2023/05/11 08:58:53;;;;;;;12.10;6.78;;;;;;;;;;4955968;28;92484;-84
2023/05/11 09:01:22;;;;;;;11.90;6.53;;;;;;;;;;4952719;28;92420;-84
2023/05/11 09:03:48;;;;;;;;;;;;;;;;;;4951870;28;93419;-84
2023/05/11 09:06:15;;;;;;;13.80;7.70;;;;;;;;;;4951749;28;101711;-84
2023/05/11 09:08:42;;;;;;;13.48;7.30;;;;;;;;;;4971849;28;92732;-84
2023/05/11 09:11:09;;;;;;;14.15;8.48;;;;;;;;;;4973441;28;93253;-84
2023/05/11 09:13:36;;;;;;;14.55;7.85;;;;;;;;;;4959254;28;96676;-85
2023/05/11 09:16:02;;;;;;;13.45;6.55;;;;;;;;;;4970750;28;92895;-85
2023/05/11 09:18:29;;;;;;;13.38;7.40;;;;;;;;;;4965068;28;95133;-84
2023/05/11 09:20:56;;;;;;;14.60;8.35;;;;;;;;;;4958700;28;92470;-85
2023/05/11 09:23:24;;;;;;;15.32;8.43;;;;;;;;;;4949449;28;96089;-84
2023/05/11 09:25:50;;;;;;;15.35;8.40;;;;;;;;;;4946968;28;95195;-84
2023/05/11 09:28:21;;;;;;;14.90;8.25;;;;;;;;;;4961079;28;92442;-84
2023/05/11 09:30:51;;;;;;;15.60;7.90;;;;;;;;;;4963841;28;97206;-86
2023/05/11 09:33:22;;;;;;;14.40;7.38;;;;;;;;;;4957922;28;94270;-87
2023/05/11 09:35:49;;;;;;;15.38;8.63;;;;;;;;;;4971629;28;92730;-85
2023/05/11 09:38:18;;;;;;;12.82;7.22;;;;;;;;;;4952860;28;95340;-85
2023/05/11 09:40:52;;;;;;;17.73;8.93;;;;;;;;;;4976788;28;93212;-84
2023/05/11 09:43:25;;;;;;;15.43;8.82;;;;;;;;;;4975024;28;94095;-84
2023/05/11 09:45:53;;;;;;;15.57;8.70;;;;;;;;;;4955305;28;92381;-83
2023/05/11 09:48:19;;;;;;;13.95;7.55;;;;;;;;;;4973093;28;92660;-82
2023/05/11 09:50:50;;;;;;;11.32;6.88;;;;;;;;;;4978392;28;92660;-84
2023/05/11 09:53:17;;;;;;;17.17;8.80;;;;;;;;;;4983886;28;92355;-86
2023/05/11 09:55:54;;;;;;;14.38;7.35;;;;;;;;;;4985728;28;91900;-85
2023/05/11 09:58:20;;;;;;;14.80;8.40;;;;;;;;;;4982728;28;92606;-84
2023/05/11 10:00:51;;;;;;;11.20;6.13;;;;;;;;;;4981339;28;92846;-86
2023/05/11 10:03:17;;;;;;;13.75;8.02;;;;;;;;;;4979042;28;94982;-80
2023/05/11 10:05:57;;;;;;;13.10;7.20;;;;;;;;;;4961063;28;93218;-82
2023/05/11 10:08:29;;;;;;;13.23;7.60;;;;;;;;;;4967680;28;93018;-82
2023/05/11 10:10:56;;;;;;;8.98;4.63;;;;;;;;;;4963804;28;93483;-82
2023/05/11 10:13:23;;;;;;;14.55;6.93;;;;;;;;;;4966519;28;93411;-81
2023/05/11 10:15:50;;;;;;;15.18;8.10;;;;;;;;;;4968642;28;92464;-83
2023/05/11 10:18:17;;;;;;;12.65;6.93;;;;;;;;;;4979293;28;92751;-84
2023/05/11 10:20:46;;;;;;;9.27;5.00;;;;;;;;;;4991108;28;91726;-83
2023/05/11 10:23:13;;;;;;;9.20;4.28;;;;;;;;;;4980307;28;99154;-83
2023/05/11 10:25:40;;;;;;;8.38;4.05;;;;;;;;;;4996650;28;92549;-85
2023/05/11 10:28:08;;;;;;;12.55;6.28;;;;;;;;;;4978566;28;95393;-85
2023/05/11 10:30:34;;;;;;;12.60;6.65;;;;;;;;;;4960190;28;94014;-85
2023/05/11 10:33:01;;;;;;;12.15;7.00;;;;;;;;;;4972820;28;92404;-84
2023/05/11 10:35:28;;;;;;;11.35;5.20;;;;;;;;;;4981854;28;92826;-85
2023/05/11 10:37:54;;;;;;;;;;;;;;;;;;4995365;28;94946;-85
2023/05/11 10:40:21;;;;;;;10.10;5.43;;;;;;;;;;4994830;28;104215;-84
2023/05/11 10:42:57;;;;;;;14.25;7.45;;;;;;;;;;4982641;28;92516;-85
2023/05/11 10:45:28;;;;;;;10.52;5.65;;;;;;;;;;4960053;28;91785;-85
2023/05/11 10:48:05;;;;;;;11.02;6.05;;;;;;;;;;4954438;28;96356;-83
2023/05/11 10:50:32;;;;;;;12.88;7.10;;;;;;;;;;4957620;28;93425;-84
2023/05/11 10:53:04;;;;;;;13.10;6.60;;;;;;;;;;4956204;28;95724;-84
2023/05/11 10:55:30;;;;;;;13.15;6.75;;;;;;;;;;4953801;28;92886;-84
2023/05/11 10:58:04;;;;;;;12.93;6.57;;;;;;;;;;4943965;28;92840;-84
2023/05/11 11:00:49;;;;;;;14.25;8.05;;;;;;;;;;4951082;28;92782;-85
2023/05/11 11:03:16;;;;;;;14.82;7.75;;;;;;;;;;4949579;28;92749;-85
2023/05/11 11:05:43;;;;;;;13.93;7.43;;;;;;;;;;4945736;28;93088;-83
2023/05/11 11:08:14;;;;;;;13.07;6.82;;;;;;;;;;4944107;28;93508;-83
2023/05/11 11:10:48;;;;;;;11.18;5.82;;;;;;;;;;4950402;28;92189;-82
2023/05/11 11:13:16;;;;;;;10.18;5.57;;;;;;;;;;4949146;28;92990;-83
2023/05/11 11:15:51;;;;;;;10.40;5.25;;;;;;;;;;4951071;28;100097;-82
2023/05/11 11:18:34;;;;;;;10.30;5.22;;;;;;;;;;4959047;28;95167;-83
2023/05/11 11:21:01;;;;;;;10.70;5.70;;;;;;;;;;4949553;28;97627;-83
2023/05/11 11:23:28;;;;;;;;;;;;;;;;;;4961284;28;92521;-83
2023/05/11 11:25:55;;;;;;;8.80;4.60;;;;;;;;;;4944746;28;116213;-83
2023/05/11 11:28:21;;;;;;;10.35;5.03;;;;;;;;;;4949941;28;96118;-83
2023/05/11 11:31:08;;;;;;;9.65;4.75;;;;;;;;;;4969618;28;92730;-83
2023/05/11 11:33:35;;;;;;;8.80;4.50;;;;;;;;;;4958892;28;94020;-83
2023/05/11 11:36:01;;;;;;;8.30;4.30;;;;;;;;;;4966500;28;92349;-83
2023/05/11 11:38:28;;;;;;;8.35;4.43;;;;;;;;;;4954499;28;93654;-83
2023/05/11 11:40:55;;;;;;;9.07;4.50;;;;;;;;;;4958123;28;93149;-83
2023/05/11 11:43:23;;;;;;;9.55;4.82;;;;;;;;;;4965467;28;95028;-83
2023/05/11 11:45:51;;;;;;;8.38;4.05;;;;;;;;;;4953272;28;95973;-83
2023/05/11 11:48:31;;;;;;;9.13;4.30;;;;;;;;;;4966846;28;93315;-83
2023/05/11 11:51:11;;;;;;;9.23;4.38;;;;;;;;;;4950725;28;93262;-84
2023/05/11 11:53:42;;;;;;;8.88;4.43;;;;;;;;;;4969674;28;93965;-85
2023/05/11 11:56:10;;;;;;;8.48;4.20;;;;;;;;;;4965261;28;92771;-84
2023/05/11 11:58:43;;;;;;;8.82;4.05;;;;;;;;;;4956731;28;93030;-84
2023/05/11 12:01:23;;;;;;;8.38;4.07;;;;;;;;;;4958210;28;92817;-85
2023/05/11 12:03:52;;;;;;;8.25;3.85;;;;;;;;;;4944855;28;92599;-84
2023/05/11 12:06:21;;;;;;;9.40;3.90;;;;;;;;;;4947640;28;92777;-84
2023/05/11 12:08:50;;;;;;;8.43;3.75;;;;;;;;;;4950228;28;101634;-84
2023/05/11 12:11:16;;;;;;;6.25;3.08;;;;;;;;;;4949451;28;93009;-85
2023/05/11 12:13:43;;;;;;;9.60;4.57;;;;;;;;;;4958533;28;92946;-84
2023/05/11 12:16:11;;;;;;;9.88;4.57;;;;;;;;;;4955583;28;93462;-85
2023/05/11 12:18:41;;;;;;;9.35;3.85;;;;;;;;;;4960653;28;92677;-84
2023/05/11 12:21:27;;;;;;;9.30;4.13;;;;;;;;;;4967374;28;93043;-84
2023/05/11 12:23:54;;;;;;;7.68;4.00;;;;;;;;;;4969384;28;92518;-84
2023/05/11 12:26:22;;;;;;;8.27;3.97;;;;;;;;;;4968085;28;95575;-85
2023/05/11 12:28:49;;;;;;;6.57;3.03;;;;;;;;;;4960686;28;97430;-82
2023/05/11 12:31:17;;;;;;;6.68;3.10;;;;;;;;;;4948338;28;93608;-84
2023/05/11 12:33:44;;;;;;;9.25;3.35;;;;;;;;;;4968910;28;94817;-85
2023/05/11 12:36:13;;;;;;;8.27;3.42;;;;;;;;;;4973492;28;94634;-84
2023/05/11 12:38:43;;;;;;;9.25;3.15;;;;;;;;;;4976410;28;92647;-84
2023/05/11 12:41:10;;;;;;;7.97;3.20;;;;;;;;;;4960894;28;93131;-85
2023/05/11 12:43:37;;;;;;;7.45;3.20;;;;;;;;;;4972206;28;92457;-85
2023/05/11 12:46:03;;;;;;;8.05;2.97;;;;;;;;;;4968701;28;92863;-85
2023/05/11 12:48:30;;;;;;;7.43;3.00;;;;;;;;;;4970638;28;92361;-85
2023/05/11 12:50:56;;;;;;;7.97;2.80;;;;;;;;;;4970957;28;92196;-85
2023/05/11 12:53:23;;;;;;;8.55;2.75;;;;;;;;;;4960815;28;93416;-85
2023/05/11 12:55:56;;;;;;;7.40;3.05;;;;;;;;;;4960474;28;93569;-85
2023/05/11 12:58:23;;;;;;;5.70;2.72;;;;;;;;;;4960625;28;96078;-82
2023/05/11 13:00:51;;;;;;;5.43;2.72;;;;;;;;;;4964486;28;94146;-85
2023/05/11 13:03:22;;;;;;;7.50;3.00;;;;;;;;;;4966815;28;92576;-85
2023/05/11 13:05:49;;;;;;;6.50;3.00;;;;;;;;;;4970007;28;92894;-85
2023/05/11 13:08:17;;;;;;;8.55;3.03;;;;;;;;;;4965671;28;93168;-84
2023/05/11 13:10:44;;;;;;;6.97;2.75;;;;;;;;;;4964270;28;93612;-84
2023/05/11 13:13:10;;;;;;;8.60;3.20;;;;;;;;;;4969083;28;92577;-83
2023/05/11 13:15:49;;;;;;;7.60;3.13;;;;;;;;;;4968956;28;92372;-84
2023/05/11 13:18:16;;;;;;;8.63;3.00;;;;;;;;;;4960691;28;92573;-84
2023/05/11 13:20:43;;;;;;;7.43;2.63;;;;;;;;;;4963751;28;92791;-83
2023/05/11 13:23:11;;;;;;;7.05;3.00;;;;;;;;;;4960554;28;94973;-84
2023/05/11 13:25:50;;;;;;;7.95;3.03;;;;;;;;;;4959103;28;97050;-84
2023/05/11 13:28:17;;;;;;;6.80;2.92;;;;;;;;;;4947159;28;93100;-83
2023/05/11 13:30:45;;;;;;;7.43;3.03;;;;;;;;;;4963905;28;92482;-84
2023/05/11 13:33:12;;;;;;;7.70;2.63;;;;;;;;;;4964558;28;93008;-84
2023/05/11 13:35:38;;;;;;;6.95;2.80;;;;;;;;;;4960798;28;93810;-85
2023/05/11 13:38:05;;;;;;;5.80;2.55;;;;;;;;;;4969378;28;92543;-83
2023/05/11 13:40:32;;;;;;;6.43;2.75;;;;;;;;;;4946720;28;94466;-83
2023/05/11 13:42:59;;;;;;;7.07;2.70;;;;;;;;;;4952374;28;93143;-84
2023/05/11 13:45:26;;;;;;;5.47;2.55;;;;;;;;;;4967539;28;92785;-83
2023/05/11 13:47:54;;;;;;;5.60;2.80;;;;;;;;;;4959390;28;96137;-83
2023/05/11 13:50:24;;;;;;;6.07;2.55;;;;;;;;;;4968880;28;93385;-83
2023/05/11 13:52:51;;;;;;;6.50;2.65;;;;;;;;;;4961843;28;98883;-83
2023/05/11 13:55:18;;;;;;;6.55;2.92;;;;;;;;;;4955890;28;93158;-83
2023/05/11 13:57:45;;;;;;;6.07;2.50;;;;;;;;;;4979662;28;92691;-82
2023/05/11 14:00:12;;;;;;;6.97;2.80;;;;;;;;;;4972941;28;92880;-82
2023/05/11 14:02:38;;;;;;;5.90;2.63;;;;;;;;;;4983988;28;92355;-82
2023/05/11 14:05:05;;;;;;;5.15;2.38;;;;;;;;;;4981266;28;91760;-82
2023/05/11 14:07:31;;;;;;;5.95;2.55;;;;;;;;;;4977519;28;93027;-82
2023/05/11 14:10:12;;;;;;;5.57;2.60;;;;;;;;;;4968450;28;93056;-83
2023/05/11 14:12:39;;;;;;;6.07;2.42;;;;;;;;;;4972200;28;95230;-83
2023/05/11 14:15:06;;;;;;;4.97;2.40;;;;;;;;;;4962951;28;94102;-83
2023/05/11 14:17:33;;;;;;;5.65;2.60;;;;;;;;;;4973155;28;92509;-83
2023/05/11 14:20:00;;;;;;;5.30;2.13;;;;;;;;;;4970267;28;93740;-82
2023/05/11 14:22:27;;;;;;;5.85;3.05;;;;;;;;;;4968388;28;93190;-81
2023/05/11 14:24:54;;;;;;;;;;;;;;;;;;4971717;28;93048;-82
2023/05/11 14:27:21;;;;;;;5.47;2.55;;;;;;;;;;4972071;28;108973;-83
2023/05/11 14:29:50;;;;;;;6.75;2.80;;;;;;;;;;4970202;28;91798;-83
2023/05/11 14:32:17;;;;;;;4.97;2.22;;;;;;;;;;4969869;28;92873;-83
2023/05/11 14:34:44;;;;;;;5.32;2.30;;;;;;;;;;4966080;28;93330;-83
2023/05/11 14:37:11;;;;;;;4.70;2.40;;;;;;;;;;4966625;28;94975;-82
2023/05/11 14:39:39;;;;;;;5.68;2.50;;;;;;;;;;4971561;28;94417;-83
2023/05/11 14:42:06;;;;;;;;;;;;;;;;;;4965737;28;93947;-84
2023/05/11 14:44:33;;;;;;;4.88;2.47;;;;;;;;;;4966686;28;92646;-84